BVX139A EGCC-LIRF
Flight info
| Callsign | BVX139A |
|---|---|
| Flight time | N/A |
| Altitude | 35000 |
| Route | LISTO P18 TELBA L151 MID UL612 OGULO DCT OKASI DCT OKEKO DCT MOU DCT MADIV DCT MOKIP DCT TUFTA DCT KOGAS DCT MEDAM DCT NITAM DCT MOGBO DCT ELB/N0484F360 DCT ELKAP |
| Aircraft | A35K/H-SDE2E3GHIJ3J4J5LM1ORWXY/LB1D1 |
Departure
| Time | 2026-05-01 15:31 |
|---|---|
| Airport | Manchester Airport (EGCC) |
Arrival
| Time | N/A |
|---|---|
| Airport | Rome–Fiumicino Leonardo da Vinci International Airport (LIRF) |
| Time | Latitude | Longitude | Altitude | Speed | Heading |
|---|---|---|---|---|---|
| 2026-05-01 14:56 | 53.36295 | -2.27923 | 261 ft | 0 kts | 139° |
| 2026-05-01 15:18 | 53.36304 | -2.27936 | 261 ft | 4 kts | 139° |
| 2026-05-01 15:18 | 53.36320 | -2.27960 | 263 ft | 4 kts | 145° |
| 2026-05-01 15:19 | 53.36368 | -2.27974 | 265 ft | 4 kts | 226° |
| 2026-05-01 15:19 | 53.36335 | -2.28032 | 262 ft | 4 kts | 238° |
| 2026-05-01 15:19 | 53.36323 | -2.28044 | 261 ft | 0 kts | 199° |
| 2026-05-01 15:23 | 53.36312 | -2.28050 | 261 ft | 3 kts | 199° |
| 2026-05-01 15:23 | 53.36286 | -2.28065 | 261 ft | 5 kts | 197° |
| 2026-05-01 15:24 | 53.36242 | -2.28074 | 261 ft | 7 kts | 181° |
| 2026-05-01 15:24 | 53.36195 | -2.28034 | 261 ft | 9 kts | 135° |
| 2026-05-01 15:24 | 53.36144 | -2.27956 | 261 ft | 11 kts | 143° |
| 2026-05-01 15:24 | 53.36083 | -2.27878 | 261 ft | 12 kts | 143° |
| 2026-05-01 15:25 | 53.36013 | -2.27787 | 261 ft | 14 kts | 142° |
| 2026-05-01 15:25 | 53.35926 | -2.27728 | 261 ft | 15 kts | 175° |
| 2026-05-01 15:25 | 53.35838 | -2.27732 | 259 ft | 10 kts | 176° |
| 2026-05-01 15:25 | 53.35789 | -2.27691 | 257 ft | 7 kts | 146° |
| 2026-05-01 15:26 | 53.35732 | -2.27641 | 255 ft | 11 kts | 155° |
| 2026-05-01 15:26 | 53.35666 | -2.27584 | 252 ft | 10 kts | 144° |
| 2026-05-01 15:26 | 53.35620 | -2.27493 | 251 ft | 11 kts | 100° |
| 2026-05-01 15:26 | 53.35658 | -2.27374 | 257 ft | 13 kts | 51° |
| 2026-05-01 15:27 | 53.35718 | -2.27251 | 261 ft | 15 kts | 51° |
| 2026-05-01 15:27 | 53.35788 | -2.27107 | 261 ft | 17 kts | 51° |
| 2026-05-01 15:27 | 53.35843 | -2.26963 | 261 ft | 15 kts | 55° |
| 2026-05-01 15:28 | 53.35901 | -2.26833 | 261 ft | 6 kts | 54° |
| 2026-05-01 15:28 | 53.35952 | -2.26708 | 262 ft | 15 kts | 51° |
| 2026-05-01 15:28 | 53.36023 | -2.26563 | 261 ft | 17 kts | 51° |
| 2026-05-01 15:29 | 53.36179 | -2.26257 | 261 ft | 16 kts | 41° |
| 2026-05-01 15:29 | 53.36255 | -2.26122 | 261 ft | 15 kts | 59° |
| 2026-05-01 15:29 | 53.36280 | -2.25822 | 263 ft | 12 kts | 111° |
| 2026-05-01 15:30 | 53.36183 | -2.25825 | 265 ft | 11 kts | 231° |
| 2026-05-01 15:31 | 53.34410 | -2.29393 | 1097 ft | 158 kts | 234° |
| 2026-05-01 15:31 | 53.32944 | -2.32614 | 1825 ft | 197 kts | 242° |
| 2026-05-01 15:32 | 53.32585 | -2.37520 | 2853 ft | 217 kts | 259° |
| 2026-05-01 15:32 | 53.30823 | -2.41415 | 4113 ft | 219 kts | 211° |
| 2026-05-01 15:33 | 53.26694 | -2.44120 | 6307 ft | 216 kts | 175° |
| 2026-05-01 15:34 | 53.22447 | -2.40964 | 8035 ft | 245 kts | 154° |